Terminal Aerodrome Forecast
Issued by NWS

Home | Current Version | Previous Version | Text Only | Print | Product List | Glossary On
Versions: 1 2 3 4 5 6 7 8 9 10 11 12 13 14 15 16 17 18
000
FTUS42 KTBW 220500
TAFLAL
TAF
KLAL 220530Z 2206/2306 00000KT P6SM SCT020 BKN060
     FM221200 VRB03KT P6SM SCT025 BKN070 BKN250
     FM221700 17004KT P6SM VCSH SCT025 BKN050
     FM222000 21006KT P6SM VCTS SCT035CB BKN050
     FM230200 VRB05KT P6SM SCT050 BKN070
      AMD NOT SKED TIL 221200=

USA.gov is the U.S. government's official web portal to all federal, state and local government web resources and services.